sensor_id;sensor_type;location;lat;lon;timestamp;P1;durP1;ratioP1;P2;durP2;ratioP2
15474;SDS011;7839;50.462;9.678;2024-01-10T00:04:31;30.90;;;17.83;;
15474;SDS011;7839;50.462;9.678;2024-01-10T00:11:11;17.13;;;10.50;;
15474;SDS011;7839;50.462;9.678;2024-01-10T00:17:51;9.43;;;6.23;;
15474;SDS011;7839;50.462;9.678;2024-01-10T00:24:32;10.50;;;5.90;;
15474;SDS011;7839;50.462;9.678;2024-01-10T00:31:12;8.37;;;5.83;;
15474;SDS011;7839;50.462;9.678;2024-01-10T00:37:52;7.67;;;5.77;;
15474;SDS011;7839;50.462;9.678;2024-01-10T00:44:32;6.00;;;4.60;;
15474;SDS011;7839;50.462;9.678;2024-01-10T00:51:13;6.17;;;4.50;;
15474;SDS011;7839;50.462;9.678;2024-01-10T00:57:53;5.93;;;4.70;;
15474;SDS011;7839;50.462;9.678;2024-01-10T01:04:33;6.47;;;4.53;;
15474;SDS011;7839;50.462;9.678;2024-01-10T01:11:13;6.73;;;4.97;;
15474;SDS011;7839;50.462;9.678;2024-01-10T01:17:54;5.77;;;4.07;;
15474;SDS011;7839;50.462;9.678;2024-01-10T01:24:34;6.77;;;4.57;;
15474;SDS011;7839;50.462;9.678;2024-01-10T01:31:15;5.83;;;4.53;;
15474;SDS011;7839;50.462;9.678;2024-01-10T01:37:55;5.93;;;4.10;;
15474;SDS011;7839;50.462;9.678;2024-01-10T01:44:35;4.87;;;3.60;;
15474;SDS011;7839;50.462;9.678;2024-01-10T01:51:15;4.47;;;3.73;;
15474;SDS011;7839;50.462;9.678;2024-01-10T01:57:57;5.20;;;3.43;;
15474;SDS011;7839;50.462;9.678;2024-01-10T02:04:37;4.77;;;3.47;;
15474;SDS011;7839;50.462;9.678;2024-01-10T02:11:17;3.23;;;2.73;;
15474;SDS011;7839;50.462;9.678;2024-01-10T02:17:57;3.47;;;2.73;;
15474;SDS011;7839;50.462;9.678;2024-01-10T02:24:37;4.03;;;3.17;;
15474;SDS011;7839;50.462;9.678;2024-01-10T02:31:18;3.07;;;2.70;;
15474;SDS011;7839;50.462;9.678;2024-01-10T02:37:58;3.10;;;2.50;;
15474;SDS011;7839;50.462;9.678;2024-01-10T02:44:39;2.73;;;2.47;;
15474;SDS011;7839;50.462;9.678;2024-01-10T02:51:19;4.00;;;2.63;;
15474;SDS011;7839;50.462;9.678;2024-01-10T02:57:59;18.47;;;12.97;;
15474;SDS011;7839;50.462;9.678;2024-01-10T03:04:39;12.47;;;8.00;;
15474;SDS011;7839;50.462;9.678;2024-01-10T03:11:20;11.73;;;8.53;;
15474;SDS011;7839;50.462;9.678;2024-01-10T03:18:00;4.53;;;3.47;;
15474;SDS011;7839;50.462;9.678;2024-01-10T03:24:40;4.87;;;3.17;;
15474;SDS011;7839;50.462;9.678;2024-01-10T03:31:20;3.73;;;2.77;;
15474;SDS011;7839;50.462;9.678;2024-01-10T03:38:00;3.90;;;3.47;;
15474;SDS011;7839;50.462;9.678;2024-01-10T03:44:41;29.60;;;19.00;;
15474;SDS011;7839;50.462;9.678;2024-01-10T03:51:21;7.33;;;4.97;;
15474;SDS011;7839;50.462;9.678;2024-01-10T03:58:01;23.23;;;14.80;;
15474;SDS011;7839;50.462;9.678;2024-01-10T04:04:41;4.70;;;4.10;;
15474;SDS011;7839;50.462;9.678;2024-01-10T04:11:21;27.27;;;18.50;;
15474;SDS011;7839;50.462;9.678;2024-01-10T04:18:01;9.13;;;7.63;;
15474;SDS011;7839;50.462;9.678;2024-01-10T04:24:42;8.47;;;5.30;;
15474;SDS011;7839;50.462;9.678;2024-01-10T04:31:23;4.70;;;3.87;;
15474;SDS011;7839;50.462;9.678;2024-01-10T04:38:03;5.77;;;4.63;;
15474;SDS011;7839;50.462;9.678;2024-01-10T04:44:43;4.30;;;3.80;;
15474;SDS011;7839;50.462;9.678;2024-01-10T04:51:24;21.33;;;13.70;;
15474;SDS011;7839;50.462;9.678;2024-01-10T04:58:04;28.53;;;19.30;;
15474;SDS011;7839;50.462;9.678;2024-01-10T05:04:44;8.80;;;5.73;;
15474;SDS011;7839;50.462;9.678;2024-01-10T05:11:24;6.13;;;4.73;;
15474;SDS011;7839;50.462;9.678;2024-01-10T05:18:08;29.37;;;19.67;;
15474;SDS011;7839;50.462;9.678;2024-01-10T05:24:48;6.43;;;5.10;;
15474;SDS011;7839;50.462;9.678;2024-01-10T05:31:28;6.83;;;4.63;;
15474;SDS011;7839;50.462;9.678;2024-01-10T05:38:08;5.10;;;3.97;;
15474;SDS011;7839;50.462;9.678;2024-01-10T05:44:48;5.33;;;4.43;;
15474;SDS011;7839;50.462;9.678;2024-01-10T05:51:29;5.77;;;4.20;;
15474;SDS011;7839;50.462;9.678;2024-01-10T05:58:09;4.33;;;3.27;;
15474;SDS011;7839;50.462;9.678;2024-01-10T06:04:50;5.07;;;3.83;;
15474;SDS011;7839;50.462;9.678;2024-01-10T06:11:30;18.05;;;13.15;;
15474;SDS011;7839;50.462;9.678;2024-01-10T06:18:10;4.37;;;3.73;;
15474;SDS011;7839;50.462;9.678;2024-01-10T06:24:50;6.03;;;4.97;;
15474;SDS011;7839;50.462;9.678;2024-01-10T06:31:30;21.40;;;15.10;;
15474;SDS011;7839;50.462;9.678;2024-01-10T06:38:11;19.03;;;13.37;;
15474;SDS011;7839;50.462;9.678;2024-01-10T06:44:51;10.43;;;6.77;;
15474;SDS011;7839;50.462;9.678;2024-01-10T06:51:31;30.57;;;18.80;;
15474;SDS011;7839;50.462;9.678;2024-01-10T06:58:11;10.17;;;6.23;;
15474;SDS011;7839;50.462;9.678;2024-01-10T07:04:51;5.67;;;3.83;;
15474;SDS011;7839;50.462;9.678;2024-01-10T07:11:31;4.93;;;4.00;;
15474;SDS011;7839;50.462;9.678;2024-01-10T07:18:12;4.00;;;3.60;;
15474;SDS011;7839;50.462;9.678;2024-01-10T07:24:52;4.63;;;3.70;;
15474;SDS011;7839;50.462;9.678;2024-01-10T07:31:32;16.03;;;11.43;;
15474;SDS011;7839;50.462;9.678;2024-01-10T07:38:12;5.87;;;4.03;;
15474;SDS011;7839;50.462;9.678;2024-01-10T07:44:52;7.33;;;3.73;;
15474;SDS011;7839;50.462;9.678;2024-01-10T07:51:33;6.50;;;4.13;;
15474;SDS011;7839;50.462;9.678;2024-01-10T07:58:13;5.13;;;3.63;;
15474;SDS011;7839;50.462;9.678;2024-01-10T08:04:54;4.70;;;3.93;;
15474;SDS011;7839;50.462;9.678;2024-01-10T08:11:34;7.50;;;3.73;;
15474;SDS011;7839;50.462;9.678;2024-01-10T08:18:14;4.33;;;3.10;;
15474;SDS011;7839;50.462;9.678;2024-01-10T08:24:55;5.17;;;3.30;;
15474;SDS011;7839;50.462;9.678;2024-01-10T08:31:36;4.93;;;3.33;;
15474;SDS011;7839;50.462;9.678;2024-01-10T08:38:16;7.07;;;3.43;;
15474;SDS011;7839;50.462;9.678;2024-01-10T08:44:56;4.37;;;3.20;;
15474;SDS011;7839;50.462;9.678;2024-01-10T08:51:36;4.80;;;3.63;;
15474;SDS011;7839;50.462;9.678;2024-01-10T08:58:16;5.23;;;3.33;;
15474;SDS011;7839;50.462;9.678;2024-01-10T09:04:56;5.20;;;3.33;;
15474;SDS011;7839;50.462;9.678;2024-01-10T09:11:37;30.97;;;23.63;;
15474;SDS011;7839;50.462;9.678;2024-01-10T09:18:17;38.47;;;23.90;;
15474;SDS011;7839;50.462;9.678;2024-01-10T09:24:57;40.43;;;23.90;;
15474;SDS011;7839;50.462;9.678;2024-01-10T09:31:43;13.33;;;7.67;;
15474;SDS011;7839;50.462;9.678;2024-01-10T09:38:23;39.10;;;22.03;;
15474;SDS011;7839;50.462;9.678;2024-01-10T09:45:04;35.17;;;21.23;;
15474;SDS011;7839;50.462;9.678;2024-01-10T09:51:45;32.10;;;18.43;;
15474;SDS011;7839;50.462;9.678;2024-01-10T09:58:27;43.57;;;23.70;;
15474;SDS011;7839;50.462;9.678;2024-01-10T10:05:08;43.90;;;25.10;;
15474;SDS011;7839;50.462;9.678;2024-01-10T10:11:53;45.70;;;23.23;;
15474;SDS011;7839;50.462;9.678;2024-01-10T10:18:33;40.33;;;22.00;;
15474;SDS011;7839;50.462;9.678;2024-01-10T10:25:15;37.50;;;22.93;;
15474;SDS011;7839;50.462;9.678;2024-01-10T10:31:55;36.70;;;22.30;;
15474;SDS011;7839;50.462;9.678;2024-01-10T10:38:36;22.90;;;14.17;;
15474;SDS011;7839;50.462;9.678;2024-01-10T10:45:17;38.73;;;22.40;;
15474;SDS011;7839;50.462;9.678;2024-01-10T10:51:59;40.43;;;23.50;;
15474;SDS011;7839;50.462;9.678;2024-01-10T10:58:40;41.67;;;24.33;;
15474;SDS011;7839;50.462;9.678;2024-01-10T11:05:20;40.37;;;22.90;;
15474;SDS011;7839;50.462;9.678;2024-01-10T11:25:46;40.23;;;23.37;;
15474;SDS011;7839;50.462;9.678;2024-01-10T11:32:26;39.33;;;23.17;;
15474;SDS011;7839;50.462;9.678;2024-01-10T11:39:06;43.17;;;25.03;;
15474;SDS011;7839;50.462;9.678;2024-01-10T11:45:50;40.53;;;23.47;;
15474;SDS011;7839;50.462;9.678;2024-01-10T11:52:32;41.73;;;24.73;;
15474;SDS011;7839;50.462;9.678;2024-01-10T11:59:13;24.03;;;13.03;;
15474;SDS011;7839;50.462;9.678;2024-01-10T12:05:55;22.27;;;13.13;;
15474;SDS011;7839;50.462;9.678;2024-01-10T12:12:37;41.03;;;23.30;;
15474;SDS011;7839;50.462;9.678;2024-01-10T12:19:17;37.93;;;23.37;;
15474;SDS011;7839;50.462;9.678;2024-01-10T12:25:57;41.30;;;23.30;;
15474;SDS011;7839;50.462;9.678;2024-01-10T12:32:42;19.20;;;12.50;;
15474;SDS011;7839;50.462;9.678;2024-01-10T12:39:22;38.33;;;24.13;;
15474;SDS011;7839;50.462;9.678;2024-01-10T12:46:07;41.93;;;24.43;;
15474;SDS011;7839;50.462;9.678;2024-01-10T12:52:47;38.73;;;23.27;;
15474;SDS011;7839;50.462;9.678;2024-01-10T12:59:28;25.17;;;15.80;;
15474;SDS011;7839;50.462;9.678;2024-01-10T13:06:09;41.00;;;24.50;;
15474;SDS011;7839;50.462;9.678;2024-01-10T13:12:49;37.23;;;22.17;;
15474;SDS011;7839;50.462;9.678;2024-01-10T13:19:29;40.40;;;22.57;;
15474;SDS011;7839;50.462;9.678;2024-01-10T13:26:10;38.47;;;23.87;;
15474;SDS011;7839;50.462;9.678;2024-01-10T13:32:51;37.20;;;23.27;;
15474;SDS011;7839;50.462;9.678;2024-01-10T13:39:31;37.17;;;22.63;;
15474;SDS011;7839;50.462;9.678;2024-01-10T13:46:11;42.37;;;22.40;;
15474;SDS011;7839;50.462;9.678;2024-01-10T13:52:52;33.57;;;18.00;;
15474;SDS011;7839;50.462;9.678;2024-01-10T13:59:33;39.17;;;22.33;;
15474;SDS011;7839;50.462;9.678;2024-01-10T14:06:13;37.40;;;22.13;;
15474;SDS011;7839;50.462;9.678;2024-01-10T14:12:54;30.57;;;17.80;;
15474;SDS011;7839;50.462;9.678;2024-01-10T14:19:34;21.43;;;13.63;;
15474;SDS011;7839;50.462;9.678;2024-01-10T14:26:15;26.20;;;16.23;;
15474;SDS011;7839;50.462;9.678;2024-01-10T14:32:55;22.97;;;14.30;;
15474;SDS011;7839;50.462;9.678;2024-01-10T14:39:35;33.60;;;21.77;;
15474;SDS011;7839;50.462;9.678;2024-01-10T14:46:18;18.40;;;12.17;;
15474;SDS011;7839;50.462;9.678;2024-01-10T14:52:59;28.33;;;19.20;;
15474;SDS011;7839;50.462;9.678;2024-01-10T14:59:39;14.83;;;9.93;;
15474;SDS011;7839;50.462;9.678;2024-01-10T15:06:20;13.00;;;9.77;;
15474;SDS011;7839;50.462;9.678;2024-01-10T15:13:00;11.13;;;8.20;;
15474;SDS011;7839;50.462;9.678;2024-01-10T15:19:40;10.67;;;7.57;;
15474;SDS011;7839;50.462;9.678;2024-01-10T15:26:20;9.25;;;7.13;;
15474;SDS011;7839;50.462;9.678;2024-01-10T15:33:02;7.90;;;7.10;;
15474;SDS011;7839;50.462;9.678;2024-01-10T15:39:45;8.27;;;6.57;;
15474;SDS011;7839;50.462;9.678;2024-01-10T15:46:25;8.33;;;6.50;;
15474;SDS011;7839;50.462;9.678;2024-01-10T15:53:05;6.73;;;5.20;;
15474;SDS011;7839;50.462;9.678;2024-01-10T15:59:46;6.63;;;5.10;;
15474;SDS011;7839;50.462;9.678;2024-01-10T16:06:26;9.40;;;5.37;;
15474;SDS011;7839;50.462;9.678;2024-01-10T16:13:06;7.00;;;5.30;;
15474;SDS011;7839;50.462;9.678;2024-01-10T16:19:46;7.95;;;4.93;;
15474;SDS011;7839;50.462;9.678;2024-01-10T16:26:27;5.67;;;4.50;;
15474;SDS011;7839;50.462;9.678;2024-01-10T16:33:07;6.87;;;4.67;;
15474;SDS011;7839;50.462;9.678;2024-01-10T16:39:48;5.27;;;4.50;;
15474;SDS011;7839;50.462;9.678;2024-01-10T16:46:28;6.63;;;4.60;;
15474;SDS011;7839;50.462;9.678;2024-01-10T16:53:10;5.20;;;4.50;;
15474;SDS011;7839;50.462;9.678;2024-01-10T16:59:50;6.70;;;4.70;;
15474;SDS011;7839;50.462;9.678;2024-01-10T17:06:30;6.03;;;4.77;;
15474;SDS011;7839;50.462;9.678;2024-01-10T17:13:11;5.53;;;4.53;;
15474;SDS011;7839;50.462;9.678;2024-01-10T17:19:51;4.57;;;4.10;;
15474;SDS011;7839;50.462;9.678;2024-01-10T17:26:31;5.23;;;4.20;;
15474;SDS011;7839;50.462;9.678;2024-01-10T17:33:11;5.00;;;4.00;;
15474;SDS011;7839;50.462;9.678;2024-01-10T17:39:52;4.70;;;3.97;;
15474;SDS011;7839;50.462;9.678;2024-01-10T17:46:32;4.10;;;3.53;;
15474;SDS011;7839;50.462;9.678;2024-01-10T17:53:12;4.37;;;3.90;;
15474;SDS011;7839;50.462;9.678;2024-01-10T17:59:53;3.83;;;3.13;;
15474;SDS011;7839;50.462;9.678;2024-01-10T18:06:33;4.13;;;3.30;;
15474;SDS011;7839;50.462;9.678;2024-01-10T18:13:14;4.23;;;3.70;;
15474;SDS011;7839;50.462;9.678;2024-01-10T18:19:54;3.93;;;3.40;;
15474;SDS011;7839;50.462;9.678;2024-01-10T18:26:35;3.57;;;3.10;;
15474;SDS011;7839;50.462;9.678;2024-01-10T18:33:15;3.53;;;3.23;;
15474;SDS011;7839;50.462;9.678;2024-01-10T18:39:56;34.60;;;22.93;;
15474;SDS011;7839;50.462;9.678;2024-01-10T18:46:36;6.43;;;4.80;;
15474;SDS011;7839;50.462;9.678;2024-01-10T18:53:16;7.75;;;5.35;;
15474;SDS011;7839;50.462;9.678;2024-01-10T18:59:57;7.03;;;4.97;;
15474;SDS011;7839;50.462;9.678;2024-01-10T19:06:37;5.17;;;4.57;;
15474;SDS011;7839;50.462;9.678;2024-01-10T19:13:17;5.80;;;4.13;;
15474;SDS011;7839;50.462;9.678;2024-01-10T19:19:57;5.53;;;4.50;;
15474;SDS011;7839;50.462;9.678;2024-01-10T19:26:37;5.40;;;3.80;;
15474;SDS011;7839;50.462;9.678;2024-01-10T19:33:18;5.07;;;3.90;;
15474;SDS011;7839;50.462;9.678;2024-01-10T19:39:58;4.03;;;3.37;;
15474;SDS011;7839;50.462;9.678;2024-01-10T19:46:38;4.03;;;3.63;;
15474;SDS011;7839;50.462;9.678;2024-01-10T19:53:22;4.83;;;3.83;;
15474;SDS011;7839;50.462;9.678;2024-01-10T20:00:02;4.27;;;3.67;;
15474;SDS011;7839;50.462;9.678;2024-01-10T20:06:43;4.20;;;3.80;;
15474;SDS011;7839;50.462;9.678;2024-01-10T20:13:23;3.40;;;3.00;;
15474;SDS011;7839;50.462;9.678;2024-01-10T20:20:03;3.57;;;3.27;;
15474;SDS011;7839;50.462;9.678;2024-01-10T20:26:45;3.60;;;3.30;;
15474;SDS011;7839;50.462;9.678;2024-01-10T20:33:25;4.93;;;3.80;;
15474;SDS011;7839;50.462;9.678;2024-01-10T20:40:05;4.43;;;3.97;;
15474;SDS011;7839;50.462;9.678;2024-01-10T20:46:45;5.63;;;3.77;;
15474;SDS011;7839;50.462;9.678;2024-01-10T20:53:25;4.73;;;3.70;;
15474;SDS011;7839;50.462;9.678;2024-01-10T21:00:06;3.97;;;3.57;;
15474;SDS011;7839;50.462;9.678;2024-01-10T21:06:46;4.20;;;3.23;;
15474;SDS011;7839;50.462;9.678;2024-01-10T21:13:26;4.33;;;3.57;;
15474;SDS011;7839;50.462;9.678;2024-01-10T21:20:08;3.97;;;3.37;;
15474;SDS011;7839;50.462;9.678;2024-01-10T21:26:48;4.60;;;3.30;;
15474;SDS011;7839;50.462;9.678;2024-01-10T21:33:29;3.57;;;3.20;;
15474;SDS011;7839;50.462;9.678;2024-01-10T21:40:09;4.97;;;3.50;;
15474;SDS011;7839;50.462;9.678;2024-01-10T21:46:49;4.93;;;3.90;;
15474;SDS011;7839;50.462;9.678;2024-01-10T21:53:29;5.37;;;3.60;;
15474;SDS011;7839;50.462;9.678;2024-01-10T22:00:10;5.50;;;3.30;;
15474;SDS011;7839;50.462;9.678;2024-01-10T22:06:50;5.77;;;3.80;;
15474;SDS011;7839;50.462;9.678;2024-01-10T22:13:30;4.20;;;3.40;;
15474;SDS011;7839;50.462;9.678;2024-01-10T22:20:10;4.80;;;3.53;;
15474;SDS011;7839;50.462;9.678;2024-01-10T22:26:51;4.23;;;3.40;;
15474;SDS011;7839;50.462;9.678;2024-01-10T22:33:31;3.77;;;3.20;;
15474;SDS011;7839;50.462;9.678;2024-01-10T22:40:12;6.00;;;3.63;;
15474;SDS011;7839;50.462;9.678;2024-01-10T22:46:52;4.23;;;3.47;;
15474;SDS011;7839;50.462;9.678;2024-01-10T22:53:32;4.47;;;3.20;;
15474;SDS011;7839;50.462;9.678;2024-01-10T23:00:13;4.63;;;3.50;;
15474;SDS011;7839;50.462;9.678;2024-01-10T23:06:54;4.53;;;3.27;;
15474;SDS011;7839;50.462;9.678;2024-01-10T23:13:35;3.80;;;3.03;;
15474;SDS011;7839;50.462;9.678;2024-01-10T23:20:15;2.93;;;2.63;;
15474;SDS011;7839;50.462;9.678;2024-01-10T23:26:56;3.13;;;2.70;;
15474;SDS011;7839;50.462;9.678;2024-01-10T23:33:36;4.57;;;2.80;;
15474;SDS011;7839;50.462;9.678;2024-01-10T23:40:16;7.07;;;3.87;;
15474;SDS011;7839;50.462;9.678;2024-01-10T23:46:56;6.50;;;4.63;;
15474;SDS011;7839;50.462;9.678;2024-01-10T23:53:36;5.43;;;3.50;;
